Dades meteomassalio
Diari Summary for Octubre 11, 2017 Units:  Metric    English   Both
« Previous Day
Next Day »
Diari Semanal Mensual Anual Personalitzat
  Maxima: Minima: Mijana:
Temperatura: 27.2 °C 5.0 °C 13.9 °C
Rosada: 14.8 °C 0.3 °C 7.3 °C
Humitat: 89 % 35 % 67 %
Velocitat del vent: 18.5 km/h 0.0 km/h 2.2 km/h
Racha vent: 18.5 km/h - -
Vent:- - West
Pressio: 1025.3 hPa 1022.2 hPa -
Pluja: 0.0 mm    
Historical Graphs
 
 
Tabular Data for Octubre 11, 2017
Time Temperature Dew Point Pressure Wind Wind Speed Wind Gust Humidity Rainfall Rate (Hourly) solar Conditions
00:02 8.3 °C 0.3 °C 1023.9 hPa Calm     57 % 0.0 mm 0.0 W/m2 CLR
00:07 8.3 °C 0.3 °C 1023.9 hPa Calm     57 % 0.0 mm 0.0 W/m2 CLR
00:17 8.3 °C 0.8 °C 1023.9 hPa Calm     59 % 0.0 mm 0.0 W/m2 CLR
00:22 8.9 °C 1.6 °C 1023.9 hPa Calm     60 % 0.0 mm 0.0 W/m2 CLR
00:27 8.9 °C 1.8 °C 1023.9 hPa Calm     61 % 0.0 mm 0.0 W/m2 CLR
00:32 8.3 °C 1.0 °C 1023.9 hPa Calm     60 % 0.0 mm 0.0 W/m2 CLR
00:37 8.3 °C 1.2 °C 1023.9 hPa Calm     61 % 0.0 mm 0.0 W/m2 CLR
00:42 8.3 °C 1.2 °C 1023.9 hPa Calm     61 % 0.0 mm 0.0 W/m2 CLR
00:47 8.3 °C 1.4 °C 1023.9 hPa Calm     62 % 0.0 mm 0.0 W/m2 CLR
00:52 7.8 °C 0.9 °C 1023.9 hPa Calm     62 % 0.0 mm 0.0 W/m2 CLR
00:57 7.8 °C 1.2 °C 1023.9 hPa Calm     63 % 0.0 mm 0.0 W/m2 CLR
01:02 7.2 °C 0.8 °C 1023.9 hPa Calm     64 % 0.0 mm 0.0 W/m2 CLR
01:07 7.2 °C 1.1 °C 1023.9 hPa Calm     65 % 0.0 mm 0.0 W/m2 CLR
01:12 7.2 °C 1.3 °C 1023.9 hPa Calm     66 % 0.0 mm 0.0 W/m2 CLR
01:17 7.2 °C 1.3 °C 1023.9 hPa Calm     66 % 0.0 mm 0.0 W/m2 CLR
01:22 7.2 °C 1.3 °C 1023.9 hPa Calm     66 % 0.0 mm 0.0 W/m2 CLR
01:27 7.2 °C 1.5 °C 1023.9 hPa Calm     67 % 0.0 mm 0.0 W/m2 CLR
01:32 7.2 °C 2.1 °C 1023.9 hPa Calm     70 % 0.0 mm 0.0 W/m2 CLR
01:37 6.7 °C 1.6 °C 1023.9 hPa Calm     70 % 0.0 mm 0.0 W/m2 CLR
01:42 6.7 °C 1.8 °C 1023.9 hPa Calm     71 % 0.0 mm 0.0 W/m2 CLR
01:47 6.7 °C 1.8 °C 1023.9 hPa Calm     71 % 0.0 mm 0.0 W/m2 CLR
01:52 6.7 °C 1.8 °C 1023.9 hPa Calm     71 % 0.0 mm 0.0 W/m2 CLR
01:57 6.7 °C 1.8 °C 1023.9 hPa Calm     71 % 0.0 mm 0.0 W/m2 CLR
02:02 6.7 °C 1.8 °C 1023.9 hPa Calm     71 % 0.0 mm 0.0 W/m2 CLR
02:07 6.1 °C 1.4 °C 1023.9 hPa Calm     72 % 0.0 mm 0.0 W/m2 CLR
02:12 6.1 °C 1.2 °C 1023.9 hPa Calm     71 % 0.0 mm 0.0 W/m2 CLR
02:17 6.1 °C 1.8 °C 1023.9 hPa Calm     74 % 0.0 mm 0.0 W/m2 CLR
02:22 6.1 °C 2.0 °C 1023.9 hPa Calm     75 % 0.0 mm 0.0 W/m2 CLR
02:27 6.1 °C 2.2 °C 1023.9 hPa Calm     76 % 0.0 mm 0.0 W/m2 CLR
02:32 6.1 °C 2.0 °C 1023.9 hPa Calm     75 % 0.0 mm 0.0 W/m2 CLR
02:37 6.1 °C 2.0 °C 1023.9 hPa Calm     75 % 0.0 mm 0.0 W/m2 CLR
02:42 6.1 °C 1.8 °C 1023.9 hPa Calm     74 % 0.0 mm 0.0 W/m2 CLR
02:47 6.1 °C 2.2 °C 1024.3 hPa Calm     76 % 0.0 mm 0.0 W/m2 CLR
02:52 6.1 °C 2.4 °C 1024.3 hPa Calm     77 % 0.0 mm 0.0 W/m2 CLR
02:57 6.1 °C 2.4 °C 1024.3 hPa Calm     77 % 0.0 mm 0.0 W/m2 CLR
03:02 6.1 °C 2.4 °C 1023.9 hPa Calm     77 % 0.0 mm 0.0 W/m2 CLR
03:07 6.1 °C 2.2 °C 1024.3 hPa Calm     76 % 0.0 mm 0.0 W/m2 CLR
03:12 6.1 °C 2.4 °C 1024.3 hPa Calm     77 % 0.0 mm 0.0 W/m2 CLR
03:17 6.1 °C 2.4 °C 1024.3 hPa Calm     77 % 0.0 mm 0.0 W/m2 CLR
03:22 6.1 °C 2.7 °C 1023.9 hPa Calm     79 % 0.0 mm 0.0 W/m2 CLR
03:27 6.1 °C 2.7 °C 1023.9 hPa Calm     79 % 0.0 mm 0.0 W/m2 CLR
03:32 6.1 °C 2.9 °C 1023.9 hPa Calm     80 % 0.0 mm 0.0 W/m2 CLR
03:37 6.1 °C 3.1 °C 1023.9 hPa Calm     81 % 0.0 mm 0.0 W/m2 CLR
03:42 6.1 °C 2.9 °C 1023.9 hPa Calm     80 % 0.0 mm 0.0 W/m2 CLR
03:47 6.1 °C 2.7 °C 1023.9 hPa Calm     79 % 0.0 mm 0.0 W/m2 CLR
03:52 6.1 °C 2.9 °C 1023.9 hPa Calm     80 % 0.0 mm 0.0 W/m2 CLR
03:57 6.1 °C 3.1 °C 1023.9 hPa Calm     81 % 0.0 mm 0.0 W/m2 CLR
04:02 6.1 °C 3.1 °C 1023.9 hPa Calm     81 % 0.0 mm 0.0 W/m2 CLR
04:12 6.1 °C 3.1 °C 1023.9 hPa Calm     81 % 0.0 mm 0.0 W/m2 CLR
04:17 6.1 °C 3.3 °C 1023.9 hPa Calm     82 % 0.0 mm 0.0 W/m2 CLR
04:18 6.1 °C 3.3 °C 1023.9 hPa Calm     82 % 0.0 mm 0.0 W/m2 CLR
04:23 6.7 °C 3.8 °C 1023.9 hPa Calm     82 % 0.0 mm 0.0 W/m2 CLR
04:28 6.7 °C 3.8 °C 1023.9 hPa Calm     82 % 0.0 mm 0.0 W/m2 CLR
04:33 7.2 °C 4.3 °C 1023.9 hPa Calm     82 % 0.0 mm 0.0 W/m2 CLR
04:38 7.2 °C 4.3 °C 1023.6 hPa Calm     82 % 0.0 mm 0.0 W/m2 CLR
04:43 7.2 °C 4.3 °C 1023.6 hPa Calm     82 % 0.0 mm 0.0 W/m2 CLR
04:48 6.7 °C 4.0 °C 1023.6 hPa Calm     83 % 0.0 mm 0.0 W/m2 CLR
04:53 6.7 °C 4.0 °C 1023.9 hPa Calm     83 % 0.0 mm 0.0 W/m2 CLR
04:58 6.7 °C 4.0 °C 1023.6 hPa Calm     83 % 0.0 mm 0.0 W/m2 CLR
05:03 6.1 °C 3.6 °C 1023.9 hPa Calm     84 % 0.0 mm 0.0 W/m2 CLR
05:08 6.1 °C 3.8 °C 1023.9 hPa Calm     85 % 0.0 mm 0.0 W/m2 CLR
05:13 6.1 °C 3.8 °C 1023.9 hPa Calm     85 % 0.0 mm 0.0 W/m2 CLR
05:18 6.1 °C 3.9 °C 1023.9 hPa Calm     86 % 0.0 mm 0.0 W/m2 CLR
05:23 6.1 °C 3.8 °C 1023.9 hPa Calm     85 % 0.0 mm 0.0 W/m2 CLR
05:24 6.1 °C 3.8 °C 1023.9 hPa Calm     85 % 0.0 mm 0.0 W/m2 CLR
05:27 6.1 °C 3.8 °C 1023.9 hPa Calm     85 % 0.0 mm 0.0 W/m2 CLR
05:32 6.1 °C 3.8 °C 1023.9 hPa Calm     85 % 0.0 mm 0.0 W/m2 CLR
05:37 6.1 °C 3.8 °C 1023.9 hPa Calm     85 % 0.0 mm 0.0 W/m2 CLR
05:42 5.6 °C 3.2 °C 1023.9 hPa Calm     85 % 0.0 mm 0.0 W/m2 CLR
05:47 5.6 °C 3.4 °C 1023.9 hPa Calm     86 % 0.0 mm 0.0 W/m2 CLR
05:52 6.1 °C 3.9 °C 1023.9 hPa Calm     86 % 0.0 mm 0.0 W/m2 CLR
05:57 6.1 °C 3.9 °C 1023.9 hPa Calm     86 % 0.0 mm 0.0 W/m2 CLR
06:02 6.1 °C 3.9 °C 1023.9 hPa Calm     86 % 0.0 mm 0.0 W/m2 CLR
06:07 6.1 °C 3.8 °C 1023.9 hPa Calm     85 % 0.0 mm 0.0 W/m2 CLR
06:12 6.1 °C 3.8 °C 1023.9 hPa Calm     85 % 0.0 mm 0.0 W/m2 CLR
06:17 6.1 °C 3.8 °C 1023.9 hPa Calm     85 % 0.0 mm 0.0 W/m2 CLR
06:22 5.6 °C 3.4 °C 1023.9 hPa Calm     86 % 0.0 mm 0.0 W/m2 CLR
06:27 5.6 °C 3.6 °C 1023.9 hPa Calm     87 % 0.0 mm 0.0 W/m2 CLR
06:32 5.6 °C 3.6 °C 1023.9 hPa Calm     87 % 0.0 mm 0.0 W/m2 CLR
06:37 5.6 °C 3.6 °C 1023.9 hPa Calm     87 % 0.0 mm 0.0 W/m2 CLR
06:47 5.6 °C 3.4 °C 1023.9 hPa Calm     86 % 0.0 mm 0.0 W/m2 CLR
06:52 5.6 °C 3.4 °C 1023.9 hPa Calm     86 % 0.0 mm 0.0 W/m2 CLR
06:57 6.1 °C 4.1 °C 1023.9 hPa Calm     87 % 0.0 mm 0.0 W/m2 CLR
07:02 6.1 °C 4.1 °C 1023.9 hPa Calm     87 % 0.0 mm 0.0 W/m2 CLR
07:07 6.1 °C 4.1 °C 1023.9 hPa Calm     87 % 0.0 mm 0.0 W/m2 CLR
07:12 6.1 °C 4.3 °C 1023.9 hPa Calm     88 % 0.0 mm 0.0 W/m2 CLR
07:17 6.1 °C 4.3 °C 1023.9 hPa Calm     88 % 0.0 mm 0.0 W/m2 CLR
07:22 5.6 °C 3.7 °C 1023.9 hPa Calm     88 % 0.0 mm 0.0 W/m2 CLR
07:27 5.6 °C 3.7 °C 1023.9 hPa Calm     88 % 0.0 mm 0.0 W/m2 CLR
07:32 5.6 °C 3.9 °C 1023.9 hPa Calm     89 % 0.0 mm 0.0 W/m2 CLR
07:37 5.6 °C 3.7 °C 1023.9 hPa Calm     88 % 0.0 mm 0.0 W/m2 CLR
07:42 5.0 °C 3.3 °C 1023.9 hPa Calm     89 % 0.0 mm 0.0 W/m2 CLR
07:43 5.0 °C 3.3 °C 1023.9 hPa Calm     89 % 0.0 mm 0.0 W/m2 CLR
07:48 5.0 °C 3.3 °C 1024.3 hPa Calm     89 % 0.0 mm 0.0 W/m2 CLR
07:53 5.0 °C 3.2 °C 1023.9 hPa Calm     88 % 0.0 mm 0.0 W/m2 CLR
07:58 5.0 °C 3.2 °C 1024.3 hPa Calm     88 % 0.0 mm 0.0 W/m2 CLR
08:03 5.0 °C 3.2 °C 1024.3 hPa Calm     88 % 0.0 mm 0.0 W/m2 OVC
08:08 5.6 °C 3.9 °C 1024.3 hPa Calm     89 % 0.0 mm 5.0 W/m2 OVC
08:13 5.6 °C 3.9 °C 1024.3 hPa Calm     89 % 0.0 mm 9.0 W/m2 BKN
08:18 5.0 °C 3.2 °C 1024.3 hPa Calm     88 % 0.0 mm 11.0 W/m2 BKN
08:23 6.1 °C 4.4 °C 1024.3 hPa Calm     89 % 0.0 mm 14.0 W/m2 BKN
08:28 6.1 °C 4.4 °C 1024.3 hPa Calm     89 % 0.0 mm 18.0 W/m2 BKN
08:33 5.6 °C 3.9 °C 1024.6 hPa Calm     89 % 0.0 mm 21.0 W/m2 BKN
08:38 5.6 °C 3.7 °C 1024.6 hPa Calm     88 % 0.0 mm 26.0 W/m2 BKN
08:43 5.6 °C 3.7 °C 1024.6 hPa Calm     88 % 0.0 mm 37.0 W/m2 BKN
08:48 6.1 °C 4.1 °C 1024.6 hPa Calm     87 % 0.0 mm 42.0 W/m2 BKN
08:53 6.1 °C 4.3 °C 1024.6 hPa Calm     88 % 0.0 mm 62.0 W/m2 SCT
08:58 6.1 °C 4.3 °C 1024.6 hPa Calm     88 % 0.0 mm 74.0 W/m2 FEW
09:03 6.1 °C 4.3 °C 1024.6 hPa Calm     88 % 0.0 mm 83.0 W/m2 FEW
09:08 6.1 °C 4.1 °C 1024.9 hPa Calm     87 % 0.0 mm 104.0 W/m2 FEW
09:13 6.7 °C 4.7 °C 1024.9 hPa Calm     87 % 0.0 mm 116.0 W/m2 CLR
09:18 7.2 °C 5.1 °C 1024.9 hPa Calm     86 % 0.0 mm 135.0 W/m2 CLR
09:23 7.8 °C 5.4 °C 1024.9 hPa Calm     85 % 0.0 mm 93.0 W/m2 CLR
09:28 7.8 °C 5.2 °C 1024.9 hPa Calm     84 % 0.0 mm 172.0 W/m2 CLR
09:38 8.3 °C 5.4 °C 1024.9 hPa Calm     82 % 0.0 mm 206.0 W/m2 CLR
09:43 8.9 °C 5.6 °C 1025.3 hPa Calm     80 % 0.0 mm 223.0 W/m2 CLR
09:48 8.9 °C 5.4 °C 1025.3 hPa Calm     79 % 0.0 mm 241.0 W/m2 CLR
09:53 8.9 °C 5.4 °C 1025.3 hPa Calm     79 % 0.0 mm 255.0 W/m2 CLR
09:58 9.4 °C 5.8 °C 1024.9 hPa Calm     78 % 0.0 mm 269.0 W/m2 CLR
10:03 9.4 °C 5.8 °C 1024.9 hPa Calm     78 % 0.0 mm 285.0 W/m2 CLR
10:08 10.6 °C 6.3 °C 1024.9 hPa Calm     75 % 0.0 mm 299.0 W/m2 CLR
10:13 11.1 °C 6.4 °C 1025.3 hPa Calm     73 % 0.0 mm 316.0 W/m2 CLR
10:14 11.1 °C 6.4 °C 1025.3 hPa Calm     73 % 0.0 mm 316.0 W/m2 CLR
10:19 11.7 °C 7.0 °C 1025.3 hPa Calm     73 % 0.0 mm 329.0 W/m2 CLR
10:24 12.8 °C 8.1 °C 1024.9 hPa Calm     73 % 0.0 mm 343.0 W/m2 CLR
10:29 13.3 °C 8.4 °C 1024.9 hPa Calm     72 % 0.0 mm 357.0 W/m2 CLR
10:34 13.9 °C 8.7 °C 1025.3 hPa Calm     71 % 0.0 mm 373.0 W/m2 CLR
10:39 13.9 °C 8.5 °C 1025.3 hPa Calm     70 % 0.0 mm 387.0 W/m2 CLR
10:44 13.9 °C 8.3 °C 1024.9 hPa Calm     69 % 0.0 mm 399.0 W/m2 CLR
10:49 14.4 °C 8.8 °C 1025.3 hPa Calm     69 % 0.0 mm 410.0 W/m2 CLR
10:54 15.0 °C 9.6 °C 1024.9 hPa Calm     70 % 0.0 mm 424.0 W/m2 CLR
10:59 15.0 °C 9.3 °C 1024.9 hPa Calm     69 % 0.0 mm 434.0 W/m2 CLR
11:04 15.6 °C 9.0 °C 1024.9 hPa Calm     65 % 0.0 mm 448.0 W/m2 CLR
11:09 16.1 °C 8.6 °C 1024.9 hPa Calm     61 % 0.0 mm 457.0 W/m2 CLR
11:14 16.7 °C 9.1 °C 1024.9 hPa Calm     61 % 0.0 mm 471.0 W/m2 CLR
11:19 16.7 °C 9.1 °C 1024.9 hPa Calm     61 % 0.0 mm 482.0 W/m2 CLR
11:24 17.2 °C 9.1 °C 1024.9 hPa Calm     59 % 0.0 mm 494.0 W/m2 CLR
11:29 17.2 °C 9.4 °C 1024.9 hPa Calm     60 % 0.0 mm 504.0 W/m2 CLR
11:34 17.8 °C 9.9 °C 1024.9 hPa Calm     60 % 0.0 mm 513.0 W/m2 CLR
11:39 18.3 °C 10.4 °C 1024.9 hPa NNW 5.6 km/h 5.6 km/h 60 % 0.0 mm 524.0 W/m2 CLR
11:44 18.3 °C 10.4 °C 1024.6 hPa Calm     60 % 0.0 mm 533.0 W/m2 CLR
11:49 18.9 °C 11.2 °C 1024.9 hPa Calm     61 % 0.0 mm 543.0 W/m2 CLR
11:54 18.9 °C 10.9 °C 1024.6 hPa North 8.0 km/h 8.0 km/h 60 % 0.0 mm 550.0 W/m2 CLR
11:59 19.4 °C 11.5 °C 1024.6 hPa NNW 5.6 km/h 5.6 km/h 60 % 0.0 mm 559.0 W/m2 CLR
12:04 19.4 °C 11.5 °C 1024.9 hPa NW 5.6 km/h 5.6 km/h 60 % 0.0 mm 568.0 W/m2 CLR
12:09 20.0 °C 11.7 °C 1024.6 hPa NNW 13.0 km/h 13.0 km/h 59 % 0.0 mm 577.0 W/m2 CLR
12:14 20.0 °C 11.5 °C 1024.6 hPa Calm     58 % 0.0 mm 585.0 W/m2 CLR
12:19 20.0 °C 11.2 °C 1024.6 hPa North 9.3 km/h 9.3 km/h 57 % 0.0 mm 594.0 W/m2 CLR
12:24 20.6 °C 11.4 °C 1024.6 hPa NNE 6.4 km/h 6.4 km/h 56 % 0.0 mm 598.0 W/m2 CLR
12:29 20.6 °C 11.4 °C 1024.6 hPa NNW 5.6 km/h 5.6 km/h 56 % 0.0 mm 606.0 W/m2 CLR
12:34 20.6 °C 12.0 °C 1024.6 hPa Calm     58 % 0.0 mm 613.0 W/m2 CLR
12:39 21.1 °C 12.0 °C 1024.6 hPa NNW 4.8 km/h 4.8 km/h 56 % 0.0 mm 617.0 W/m2 CLR
12:44 21.1 °C 12.0 °C 1024.6 hPa NW 3.7 km/h 3.7 km/h 56 % 0.0 mm 622.0 W/m2 CLR
12:49 21.1 °C 12.0 °C 1024.6 hPa North 6.4 km/h 6.4 km/h 56 % 0.0 mm 628.0 W/m2 CLR
12:59 21.7 °C 12.2 °C 1024.6 hPa NW 5.6 km/h 5.6 km/h 55 % 0.0 mm 636.0 W/m2 CLR
13:04 21.7 °C 12.2 °C 1024.6 hPa WNW 5.6 km/h   55 % 0.0 mm 640.0 W/m2 CLR
13:14 22.2 °C 12.7 °C 1024.6 hPa Calm     55 % 0.0 mm 645.0 W/m2 CLR
13:19 22.2 °C 13.0 °C 1024.6 hPa NNW 9.3 km/h 9.3 km/h 56 % 0.0 mm 649.0 W/m2 CLR
13:24 22.2 °C 13.0 °C 1024.3 hPa NW 5.6 km/h 5.6 km/h 56 % 0.0 mm 647.0 W/m2 CLR
13:29 22.2 °C 13.3 °C 1024.3 hPa NNW 5.6 km/h 5.6 km/h 57 % 0.0 mm 645.0 W/m2 CLR
13:34 22.8 °C 14.1 °C 1024.3 hPa NNW 5.6 km/h 5.6 km/h 58 % 0.0 mm 647.0 W/m2 CLR
13:39 22.8 °C 14.1 °C 1024.3 hPa NW 7.4 km/h 7.4 km/h 58 % 0.0 mm 647.0 W/m2 CLR
13:44 23.3 °C 14.3 °C 1024.3 hPa NW 5.6 km/h 5.6 km/h 57 % 0.0 mm 650.0 W/m2 CLR
13:49 23.3 °C 14.3 °C 1023.9 hPa NNW 5.6 km/h 5.6 km/h 57 % 0.0 mm 652.0 W/m2 CLR
13:54 23.9 °C 14.8 °C 1023.9 hPa NNW 13.0 km/h 13.0 km/h 57 % 0.0 mm 650.0 W/m2 CLR
13:59 23.3 °C 14.1 °C 1023.9 hPa NNW 3.7 km/h   56 % 0.0 mm 649.0 W/m2 CLR
14:04 23.9 °C 14.6 °C 1023.9 hPa WNW 5.6 km/h   56 % 0.0 mm 645.0 W/m2 CLR
14:09 23.9 °C 14.6 °C 1023.9 hPa NNW 9.3 km/h 9.3 km/h 56 % 0.0 mm 645.0 W/m2 CLR
14:14 23.9 °C 14.3 °C 1023.6 hPa NW 9.3 km/h 9.3 km/h 55 % 0.0 mm 642.0 W/m2 CLR
14:19 23.9 °C 14.3 °C 1023.6 hPa NW 9.3 km/h 9.3 km/h 55 % 0.0 mm 642.0 W/m2 CLR
14:24 24.4 °C 14.6 °C 1023.6 hPa NNW 7.4 km/h 7.4 km/h 54 % 0.0 mm 636.0 W/m2 CLR
14:29 24.4 °C 14.6 °C 1023.6 hPa NNW 13.0 km/h 13.0 km/h 54 % 0.0 mm 635.0 W/m2 CLR
14:34 24.4 °C 14.2 °C 1023.2 hPa NNW 9.3 km/h 9.3 km/h 53 % 0.0 mm 629.0 W/m2 CLR
14:39 24.4 °C 14.2 °C 1023.2 hPa WNW 9.3 km/h 9.3 km/h 53 % 0.0 mm 626.0 W/m2 CLR
14:44 24.4 °C 14.2 °C 1023.2 hPa NNW 5.6 km/h 5.6 km/h 53 % 0.0 mm 622.0 W/m2 CLR
14:55 25.0 °C 14.2 °C 1023.2 hPa NW 1.9 km/h 1.9 km/h 51 % 0.0 mm 613.0 W/m2 CLR
15:00 25.0 °C 14.2 °C 1023.2 hPa NNW 13.0 km/h 13.0 km/h 51 % 0.0 mm 606.0 W/m2 CLR
15:05 25.0 °C 13.6 °C 1022.9 hPa WNW 5.6 km/h 5.6 km/h 49 % 0.0 mm 601.0 W/m2 CLR
15:10 25.0 °C 13.6 °C 1022.9 hPa NW 9.7 km/h 9.7 km/h 49 % 0.0 mm 594.0 W/m2 CLR
15:15 25.6 °C 13.4 °C 1022.9 hPa NW 13.0 km/h 13.0 km/h 47 % 0.0 mm 589.0 W/m2 CLR
15:20 25.6 °C 13.7 °C 1022.9 hPa NW 9.7 km/h 9.7 km/h 48 % 0.0 mm 582.0 W/m2 CLR
15:25 25.6 °C 13.4 °C 1022.9 hPa NW 13.0 km/h 13.0 km/h 47 % 0.0 mm 571.0 W/m2 CLR
15:30 25.6 °C 12.7 °C 1022.6 hPa NW 16.7 km/h 16.7 km/h 45 % 0.0 mm 561.0 W/m2 CLR
15:35 26.1 °C 13.2 °C 1022.6 hPa NNW 13.0 km/h 13.0 km/h 45 % 0.0 mm 555.0 W/m2 CLR
15:40 26.1 °C 12.6 °C 1022.6 hPa NW 13.0 km/h 13.0 km/h 43 % 0.0 mm 545.0 W/m2 CLR
15:45 26.1 °C 11.8 °C 1022.6 hPa NW 13.0 km/h 13.0 km/h 41 % 0.0 mm 538.0 W/m2 CLR
15:50 26.1 °C 11.4 °C 1022.6 hPa NW 16.7 km/h 16.7 km/h 40 % 0.0 mm 531.0 W/m2 CLR
15:55 26.7 °C 11.6 °C 1022.6 hPa NNW 16.7 km/h 16.7 km/h 39 % 0.0 mm 519.0 W/m2 CLR
16:00 26.7 °C 10.8 °C 1022.6 hPa NW 14.8 km/h 14.8 km/h 37 % 0.0 mm 510.0 W/m2 CLR
16:01 26.7 °C 11.2 °C 1022.6 hPa NW 14.8 km/h 14.8 km/h 38 % 0.0 mm 506.0 W/m2 CLR
16:06 26.7 °C 10.8 °C 1022.6 hPa NNW 9.3 km/h 9.3 km/h 37 % 0.0 mm 494.0 W/m2 CLR
16:11 26.7 °C 11.6 °C 1022.6 hPa North 12.9 km/h 12.9 km/h 39 % 0.0 mm 483.0 W/m2 CLR
16:16 26.7 °C 11.6 °C 1022.2 hPa NNE 9.3 km/h 9.3 km/h 39 % 0.0 mm 471.0 W/m2 CLR
16:21 27.2 °C 12.4 °C 1022.2 hPa Calm     40 % 0.0 mm 459.0 W/m2 CLR
16:26 27.2 °C 10.8 °C 1022.2 hPa NW 7.4 km/h 7.4 km/h 36 % 0.0 mm 450.0 W/m2 CLR
16:36 26.7 °C 10.8 °C 1022.2 hPa NW 7.4 km/h 7.4 km/h 37 % 0.0 mm 422.0 W/m2 CLR
16:41 27.2 °C 12.1 °C 1022.2 hPa NNW 18.5 km/h 18.5 km/h 39 % 0.0 mm 410.0 W/m2 CLR
16:46 26.7 °C 11.9 °C 1022.2 hPa NW 5.6 km/h 5.6 km/h 40 % 0.0 mm 397.0 W/m2 CLR
16:51 26.7 °C 11.6 °C 1022.2 hPa Calm     39 % 0.0 mm 385.0 W/m2 CLR
17:01 27.2 °C 10.8 °C 1022.2 hPa NW 8.0 km/h 8.0 km/h 36 % 0.0 mm 359.0 W/m2 CLR
17:06 27.2 °C 10.8 °C 1022.2 hPa NW 5.6 km/h 5.6 km/h 36 % 0.0 mm 345.0 W/m2 CLR
17:11 27.2 °C 10.4 °C 1022.2 hPa NW 7.4 km/h 7.4 km/h 35 % 0.0 mm 332.0 W/m2 CLR
17:16 27.2 °C 10.8 °C 1022.2 hPa Calm     36 % 0.0 mm 315.0 W/m2 CLR
17:21 26.7 °C 10.8 °C 1022.2 hPa North 9.3 km/h 9.3 km/h 37 % 0.0 mm 302.0 W/m2 CLR
17:26 26.7 °C 11.2 °C 1022.2 hPa NW 11.1 km/h 11.1 km/h 38 % 0.0 mm 288.0 W/m2 CLR
17:31 26.7 °C 11.2 °C 1022.2 hPa NNW 5.6 km/h 5.6 km/h 38 % 0.0 mm 272.0 W/m2 CLR
17:36 26.7 °C 11.6 °C 1022.2 hPa NNW 5.6 km/h 5.6 km/h 39 % 0.0 mm 255.0 W/m2 CLR
17:41 26.7 °C 12.3 °C 1022.2 hPa North 8.0 km/h 8.0 km/h 41 % 0.0 mm 239.0 W/m2 CLR
17:46 26.1 °C 12.2 °C 1022.6 hPa NNE 13.0 km/h 13.0 km/h 42 % 0.0 mm 223.0 W/m2 CLR
17:51 26.1 °C 12.6 °C 1022.6 hPa NNW 5.6 km/h 5.6 km/h 43 % 0.0 mm 207.0 W/m2 CLR
17:56 25.6 °C 12.1 °C 1022.6 hPa Calm     43 % 0.0 mm 190.0 W/m2 CLR
18:06 25.6 °C 12.4 °C 1022.6 hPa NE 9.7 km/h 9.7 km/h 44 % 0.0 mm 158.0 W/m2 CLR
18:11 25.0 °C 12.2 °C 1022.6 hPa NE 5.6 km/h 5.6 km/h 45 % 0.0 mm 142.0 W/m2 CLR
18:21 24.4 °C 11.4 °C 1022.6 hPa Calm     44 % 0.0 mm 109.0 W/m2 CLR
18:26 23.9 °C 10.9 °C 1022.6 hPa Calm     44 % 0.0 mm 95.0 W/m2 CLR
18:36 23.3 °C 11.1 °C 1022.6 hPa Calm     46 % 0.0 mm 70.0 W/m2 FEW
18:41 22.8 °C 10.6 °C 1022.6 hPa Calm     46 % 0.0 mm 51.0 W/m2 SCT
18:46 22.2 °C 10.4 °C 1022.6 hPa Calm     47 % 0.0 mm 44.0 W/m2 SCT
18:51 21.7 °C 9.8 °C 1022.6 hPa NNE 1.9 km/h   47 % 0.0 mm 35.0 W/m2 BKN
18:56 21.1 °C 9.7 °C 1022.6 hPa Calm     48 % 0.0 mm 26.0 W/m2 BKN
19:01 20.6 °C 9.2 °C 1022.6 hPa Calm     48 % 0.0 mm 19.0 W/m2 BKN
19:06 20.0 °C 8.9 °C 1022.9 hPa Calm     49 % 0.0 mm 14.0 W/m2 BKN
19:11 19.4 °C 8.7 °C 1022.9 hPa Calm     50 % 0.0 mm 12.0 W/m2 BKN
19:16 19.4 °C 9.1 °C 1022.9 hPa Calm     51 % 0.0 mm 9.0 W/m2 BKN
19:21 18.9 °C 8.8 °C 1022.9 hPa Calm     52 % 0.0 mm 5.0 W/m2 OVC
19:22 18.9 °C 8.8 °C 1022.9 hPa Calm     52 % 0.0 mm 5.0 W/m2 OVC
19:27 18.3 °C 8.6 °C 1022.9 hPa Calm     53 % 0.0 mm 0.0 W/m2 OVC
19:32 18.3 °C 9.1 °C 1022.9 hPa NNE 5.6 km/h 5.6 km/h 55 % 0.0 mm 0.0 W/m2 OVC
19:42 18.3 °C 9.7 °C 1023.2 hPa NE 3.2 km/h   57 % 0.0 mm 0.0 W/m2 CLR
19:47 17.8 °C 9.4 °C 1023.2 hPa NNE 3.7 km/h 3.7 km/h 58 % 0.0 mm 0.0 W/m2 CLR
19:57 17.2 °C 8.9 °C 1023.2 hPa Calm     58 % 0.0 mm 0.0 W/m2 CLR
20:07 17.2 °C 9.4 °C 1023.2 hPa Calm     60 % 0.0 mm 0.0 W/m2 CLR
20:12 16.7 °C 8.6 °C 1023.2 hPa Calm     59 % 0.0 mm 0.0 W/m2 CLR
20:17 16.7 °C 8.9 °C 1023.6 hPa Calm     60 % 0.0 mm 0.0 W/m2 CLR
20:22 16.1 °C 8.6 °C 1023.6 hPa Calm     61 % 0.0 mm 0.0 W/m2 CLR
20:27 16.1 °C 9.1 °C 1023.6 hPa Calm     63 % 0.0 mm 0.0 W/m2 CLR
20:32 16.1 °C 9.3 °C 1023.6 hPa ENE 5.6 km/h 5.6 km/h 64 % 0.0 mm 0.0 W/m2 CLR
20:37 15.6 °C 8.6 °C 1023.6 hPa Calm     63 % 0.0 mm 0.0 W/m2 CLR
20:42 15.0 °C 7.6 °C 1023.6 hPa Calm     61 % 0.0 mm 0.0 W/m2 CLR
20:47 15.0 °C 7.3 °C 1023.6 hPa Calm     60 % 0.0 mm 0.0 W/m2 CLR
20:52 15.0 °C 7.6 °C 1023.6 hPa Calm     61 % 0.0 mm 0.0 W/m2 CLR
20:57 15.0 °C 7.6 °C 1023.9 hPa Calm     61 % 0.0 mm 0.0 W/m2 CLR
21:02 15.0 °C 7.8 °C 1023.9 hPa Calm     62 % 0.0 mm 0.0 W/m2 CLR
21:07 15.0 °C 8.0 °C 1023.9 hPa Calm     63 % 0.0 mm 0.0 W/m2 CLR
21:12 15.0 °C 8.2 °C 1023.9 hPa Calm     64 % 0.0 mm 0.0 W/m2 CLR
21:17 15.0 °C 8.4 °C 1023.9 hPa Calm     65 % 0.0 mm 0.0 W/m2 CLR
21:22 15.0 °C 9.1 °C 1024.3 hPa Calm     68 % 0.0 mm 0.0 W/m2 CLR
21:27 15.0 °C 8.9 °C 1024.3 hPa Calm     67 % 0.0 mm 0.0 W/m2 CLR
21:32 15.0 °C 8.9 °C 1024.3 hPa Calm     67 % 0.0 mm 0.0 W/m2 CLR
21:37 14.4 °C 8.6 °C 1024.3 hPa Calm     68 % 0.0 mm 0.0 W/m2 CLR
21:42 14.4 °C 9.4 °C 1024.3 hPa Calm     72 % 0.0 mm 0.0 W/m2 CLR
21:47 13.9 °C 8.9 °C 1024.3 hPa NNW 3.7 km/h 3.7 km/h 72 % 0.0 mm 0.0 W/m2 CLR
21:52 13.9 °C 8.1 °C 1024.3 hPa Calm     68 % 0.0 mm 0.0 W/m2 CLR
21:57 13.3 °C 7.6 °C 1024.3 hPa Calm     68 % 0.0 mm 0.0 W/m2 CLR
22:07 12.8 °C 7.7 °C 1024.6 hPa Calm     71 % 0.0 mm 0.0 W/m2 CLR
22:12 12.8 °C 7.8 °C 1024.6 hPa Calm     72 % 0.0 mm 0.0 W/m2 CLR
22:17 12.8 °C 8.3 °C 1024.6 hPa Calm     74 % 0.0 mm 0.0 W/m2 CLR
22:22 12.8 °C 7.8 °C 1024.6 hPa Calm     72 % 0.0 mm 0.0 W/m2 CLR
22:27 12.8 °C 7.7 °C 1024.6 hPa Calm     71 % 0.0 mm 0.0 W/m2 CLR
22:32 12.2 °C 7.1 °C 1024.6 hPa Calm     71 % 0.0 mm 0.0 W/m2 CLR
22:37 12.8 °C 7.8 °C 1024.6 hPa Calm     72 % 0.0 mm 0.0 W/m2 CLR
22:42 12.8 °C 8.1 °C 1024.6 hPa Calm     73 % 0.0 mm 0.0 W/m2 CLR
22:47 13.3 °C 8.4 °C 1024.6 hPa Calm     72 % 0.0 mm 0.0 W/m2 CLR
22:52 13.3 °C 8.8 °C 1024.6 hPa Calm     74 % 0.0 mm 0.0 W/m2 CLR
22:57 12.8 °C 8.1 °C 1024.6 hPa Calm     73 % 0.0 mm 0.0 W/m2 CLR
23:02 13.3 °C 8.8 °C 1024.9 hPa Calm     74 % 0.0 mm 0.0 W/m2 CLR
23:07 13.3 °C 8.6 °C 1024.9 hPa Calm     73 % 0.0 mm 0.0 W/m2 CLR
23:12 12.8 °C 8.3 °C 1024.9 hPa Calm     74 % 0.0 mm 0.0 W/m2 CLR
23:17 12.8 °C 8.3 °C 1024.9 hPa Calm     74 % 0.0 mm 0.0 W/m2 CLR
23:22 12.8 °C 8.3 °C 1024.9 hPa Calm     74 % 0.0 mm 0.0 W/m2 CLR
23:27 12.8 °C 8.4 °C 1024.9 hPa Calm     75 % 0.0 mm 0.0 W/m2 CLR
23:32 12.8 °C 8.7 °C 1025.3 hPa Calm     76 % 0.0 mm 0.0 W/m2 CLR
23:37 12.8 °C 8.7 °C 1025.3 hPa Calm     76 % 0.0 mm 0.0 W/m2 CLR
23:42 12.8 °C 8.7 °C 1025.3 hPa Calm     76 % 0.0 mm 0.0 W/m2 CLR
23:47 12.8 °C 8.7 °C 1025.3 hPa Calm     76 % 0.0 mm 0.0 W/m2 CLR
23:52 12.2 °C 8.5 °C 1025.3 hPa Calm     78 % 0.0 mm 0.0 W/m2 CLR
23:57 12.2 °C 8.5 °C 1025.3 hPa Calm     78 % 0.0 mm 0.0 W/m2 CLR
Lo Temps de Massalio
Compliments of Weather Underground - 1.25 mb